Terminal Aerodrome Forecast
Issued by NWS

Home | Current Version | Previous Version | Text Only | Print | Product List | Glossary On
Versions: 1 2 3 4 5 6 7 8 9 10 11 12 13 14
000
FTUS44 KJAN 011753
TAFHKS
TAF
KHKS 011753Z 0118/0218 18006KT P6SM FEW027 SCT035 BKN050
     FM020000 16006KT P6SM BKN100
     FM020900 17005KT P6SM OVC015
     FM021600 18016G22KT P6SM SCT030 BKN050=

USA.gov is the U.S. government's official web portal to all federal, state and local government web resources and services.